createdAt,value
2017-05-18T00:00:16.795Z,37.98
2017-05-18T00:01:27.007Z,37.77
2017-05-18T00:02:36.916Z,37.57
2017-05-18T00:03:46.229Z,37.67
2017-05-18T00:04:55.537Z,38.06
2017-05-18T00:06:05.755Z,37.96
2017-05-18T00:07:14.748Z,38.06
2017-05-18T00:08:24.961Z,37.96
2017-05-18T00:09:34.885Z,37.87
2017-05-18T00:10:44.794Z,38.06
2017-05-18T00:11:55.015Z,37.67
2017-05-18T00:13:05.255Z,37.96
2017-05-18T00:14:15.185Z,37.87
2017-05-18T00:15:25.408Z,38.06
2017-05-18T00:16:35.326Z,37.96
2017-05-18T00:17:45.549Z,37.96
2017-05-18T00:18:55.461Z,37.87
2017-05-18T00:20:05.370Z,37.98
2017-05-18T00:21:15.609Z,37.67
2017-05-18T00:22:25.836Z,37.77
2017-05-18T00:23:35.452Z,37.77
2017-05-18T00:24:45.683Z,37.77
2017-05-18T00:25:55.893Z,37.88
2017-05-18T00:27:06.128Z,37.87
2017-05-18T00:28:15.750Z,38.06
2017-05-18T00:29:25.978Z,37.96
2017-05-18T00:30:35.896Z,38.06
2017-05-18T00:31:45.820Z,38.06
2017-05-18T00:32:55.811Z,37.87
2017-05-18T00:34:05.726Z,37.87
2017-05-18T00:35:15.634Z,37.67
2017-05-18T00:36:25.859Z,37.87
2017-05-18T00:37:35.769Z,37.96
2017-05-18T00:38:45.988Z,37.67
2017-05-18T00:39:55.900Z,37.77
2017-05-18T00:41:05.812Z,37.96
2017-05-18T00:42:15.110Z,37.79
2017-05-18T00:43:25.324Z,37.77
2017-05-18T00:44:35.549Z,37.96
2017-05-18T00:45:45.470Z,37.87
2017-05-18T00:46:55.678Z,37.87
2017-05-18T00:48:05.897Z,37.67
2017-05-18T00:49:15.856Z,37.96
2017-05-18T00:50:25.771Z,37.87
2017-05-18T00:51:35.990Z,37.96
2017-05-18T00:52:45.602Z,37.87
2017-05-18T00:53:55.826Z,37.96
2017-05-18T00:55:05.734Z,37.87
2017-05-18T00:56:15.705Z,37.87
2017-05-18T00:57:25.175Z,37.96
2017-05-18T00:58:34.786Z,37.87
2017-05-18T00:59:44.698Z,37.87
2017-05-18T01:00:54.941Z,37.87
2017-05-18T01:02:04.906Z,37.88
2017-05-18T01:03:14.817Z,37.96
2017-05-18T01:04:24.172Z,37.96
2017-05-18T01:05:33.474Z,37.96
2017-05-18T01:06:43.387Z,37.96
2017-05-18T01:07:53.294Z,37.96
2017-05-18T01:09:03.220Z,37.87
2017-05-18T01:10:12.520Z,37.96
2017-05-18T01:11:22.429Z,37.87
2017-05-18T01:12:32.339Z,37.96
2017-05-18T01:13:42.557Z,37.96
2017-05-18T01:14:52.479Z,37.87
2017-05-18T01:16:02.110Z,37.69
2017-05-18T01:17:11.407Z,37.77
2017-05-18T01:18:21.315Z,37.79
2017-05-18T01:19:31.539Z,37.59
2017-05-18T01:20:41.440Z,37.69
2017-05-18T01:21:51.346Z,37.59
2017-05-18T01:23:01.250Z,37.49
2017-05-18T01:24:11.461Z,37.38
2017-05-18T01:25:21.127Z,37.49
2017-05-18T01:26:31.419Z,37.4
2017-05-18T01:27:41.662Z,37.49
2017-05-18T01:28:51.878Z,37.49
2017-05-18T01:30:02.107Z,37.4
2017-05-18T01:31:11.716Z,37.3
2017-05-18T01:32:21.636Z,37.4
2017-05-18T01:33:31.848Z,37.3
2017-05-18T01:34:41.764Z,37.3
2017-05-18T01:35:52.201Z,37.21
2017-05-18T01:37:02.421Z,37.11
2017-05-18T01:38:12.023Z,37.01
2017-05-18T01:39:21.950Z,37.11
2017-05-18T01:40:31.260Z,37.11
2017-05-18T01:41:41.474Z,37.3
2017-05-18T01:42:51.402Z,37.3
2017-05-18T01:44:01.620Z,37.03
2017-05-18T01:45:11.883Z,37.4
2017-05-18T01:46:22.103Z,37.4
2017-05-18T01:47:32.018Z,37.4
2017-05-18T01:48:41.943Z,37.4
2017-05-18T01:49:51.868Z,37.4
2017-05-18T01:51:01.823Z,37.4
2017-05-18T01:52:11.745Z,37.4
2017-05-18T01:53:21.655Z,37.4
2017-05-18T01:54:31.270Z,37.4
2017-05-18T01:55:41.189Z,37.4
2017-05-18T01:56:51.415Z,37.21
2017-05-18T01:58:01.650Z,37.3
2017-05-18T01:59:11.897Z,37.4
2017-05-18T02:00:22.121Z,37.21
2017-05-18T02:01:32.431Z,37.11
2017-05-18T02:02:42.641Z,37.11
2017-05-18T02:03:52.554Z,37.01
2017-05-18T02:05:02.786Z,37.01
2017-05-18T02:06:13.010Z,37.21
2017-05-18T02:07:22.934Z,37.3
2017-05-18T02:08:32.838Z,37.11
2017-05-18T02:09:42.438Z,37.21
2017-05-18T02:10:52.401Z,37.49
2017-05-18T02:12:02.629Z,37.4
2017-05-18T02:13:12.841Z,37.4
2017-05-18T02:14:23.129Z,37.79
2017-05-18T02:15:33.069Z,37.79
2017-05-18T02:16:42.986Z,37.79
2017-05-18T02:17:52.899Z,37.79
2017-05-18T02:19:03.131Z,37.98
2017-05-18T02:20:13.103Z,37.77
2017-05-18T02:21:23.034Z,37.88
2017-05-18T02:22:33.282Z,37.77
2017-05-18T02:23:43.210Z,37.96
2017-05-18T02:24:52.810Z,37.88
2017-05-18T02:26:03.067Z,37.98
2017-05-18T02:27:12.683Z,37.98
2017-05-18T02:28:22.286Z,37.69
2017-05-18T02:29:32.200Z,37.79
2017-05-18T02:30:42.417Z,37.79
2017-05-18T02:31:52.633Z,37.79
2017-05-18T02:33:02.846Z,37.69
2017-05-18T02:34:12.749Z,37.69
2017-05-18T02:35:22.351Z,37.49
2017-05-18T02:36:32.565Z,37.4
2017-05-18T02:37:42.781Z,37.59
2017-05-18T02:38:52.690Z,37.59
2017-05-18T02:40:02.593Z,37.59
2017-05-18T02:41:12.500Z,37.59
2017-05-18T02:42:22.432Z,37.4
2017-05-18T02:43:32.028Z,37.4
2017-05-18T02:44:41.630Z,37.4
2017-05-18T02:45:51.535Z,37.4
2017-05-18T02:47:01.743Z,37.4
2017-05-18T02:48:11.655Z,37.49
2017-05-18T02:49:21.884Z,37.69
2017-05-18T02:50:31.498Z,37.79
2017-05-18T02:51:40.815Z,37.88
2017-05-18T02:52:50.724Z,37.88
2017-05-18T02:54:00.943Z,37.98
2017-05-18T02:55:10.572Z,37.87
2017-05-18T02:56:20.781Z,37.88
2017-05-18T02:57:30.390Z,37.96
2017-05-18T02:58:40.297Z,37.88
2017-05-18T02:59:49.896Z,37.67
2017-05-18T03:00:59.817Z,37.69
2017-05-18T03:02:09.420Z,37.88
2017-05-18T03:03:19.018Z,37.87
2017-05-18T03:04:28.626Z,37.98
2017-05-18T03:05:38.544Z,37.98
2017-05-18T03:06:48.451Z,37.96
2017-05-18T03:07:58.100Z,37.88
2017-05-18T03:09:07.730Z,37.96
2017-05-18T03:10:17.324Z,37.98
2017-05-18T03:11:27.583Z,37.77
2017-05-18T03:12:37.805Z,37.88
2017-05-18T03:13:47.708Z,37.69
2017-05-18T03:14:57.931Z,37.69
2017-05-18T03:16:07.840Z,37.69
2017-05-18T03:17:17.751Z,37.79
2017-05-18T03:18:27.657Z,37.79
2017-05-18T03:19:37.905Z,37.79
2017-05-18T03:20:47.508Z,37.69
2017-05-18T03:21:57.746Z,37.79
2017-05-18T03:23:07.996Z,37.79
2017-05-18T03:24:17.907Z,37.49
2017-05-18T03:25:28.129Z,37.69
2017-05-18T03:26:37.420Z,37.59
2017-05-18T03:27:47.336Z,37.59
2017-05-18T03:28:57.405Z,37.79
2017-05-18T03:30:07.639Z,37.69
2017-05-18T03:31:17.851Z,37.87
2017-05-18T03:32:27.448Z,37.88
2017-05-18T03:33:37.361Z,37.77
2017-05-18T03:34:47.584Z,38.06
2017-05-18T03:35:57.494Z,37.87
2017-05-18T03:37:07.101Z,37.87
2017-05-18T03:38:17.321Z,37.96
2017-05-18T03:39:27.239Z,37.87
2017-05-18T03:40:37.205Z,37.87
2017-05-18T03:41:46.815Z,38.06
2017-05-18T03:42:55.811Z,38.15
2017-05-18T03:44:05.104Z,38.06
2017-05-18T03:45:15.313Z,37.96
2017-05-18T03:46:25.530Z,37.87
2017-05-18T03:47:35.438Z,38.06
2017-05-18T03:48:45.034Z,38.06
2017-05-18T03:49:54.937Z,38.06
2017-05-18T03:51:04.846Z,38.15
2017-05-18T03:52:15.065Z,38.25
2017-05-18T03:53:25.280Z,38.06
2017-05-18T03:54:34.877Z,37.87
2017-05-18T03:55:44.797Z,37.87
2017-05-18T03:56:55.009Z,37.87
2017-05-18T03:58:04.299Z,37.77
2017-05-18T03:59:14.199Z,37.67
2017-05-18T04:00:24.437Z,38.15
2017-05-18T04:01:34.346Z,37.87
2017-05-18T04:02:44.253Z,37.87
2017-05-18T04:03:54.172Z,37.67
2017-05-18T04:05:04.085Z,37.69
2017-05-18T04:06:14.002Z,37.87
2017-05-18T04:07:23.903Z,37.79
2017-05-18T04:08:33.810Z,37.69
2017-05-18T04:09:44.031Z,37.77
2017-05-18T04:10:53.967Z,37.77
2017-05-18T04:12:03.559Z,37.69
2017-05-18T04:13:13.466Z,37.69
2017-05-18T04:14:22.750Z,37.79
2017-05-18T04:15:32.985Z,37.79
2017-05-18T04:16:42.641Z,37.79
2017-05-18T04:17:52.870Z,37.79
2017-05-18T04:19:03.124Z,37.69
2017-05-18T04:20:12.743Z,37.59
2017-05-18T04:21:22.342Z,37.69
2017-05-18T04:22:31.939Z,37.59
2017-05-18T04:23:41.854Z,37.4
2017-05-18T04:24:51.773Z,37.59
2017-05-18T04:26:01.695Z,37.49
2017-05-18T04:27:11.602Z,37.59
2017-05-18T04:28:21.198Z,37.49
2017-05-18T04:29:31.427Z,37.49
2017-05-18T04:30:41.335Z,37.49
2017-05-18T04:31:51.258Z,37.69
2017-05-18T04:33:01.182Z,37.88
2017-05-18T04:34:11.081Z,38.17
2017-05-18T04:35:21.298Z,37.98
2017-05-18T04:36:31.512Z,37.79
2017-05-18T04:37:41.742Z,38.06
2017-05-18T04:38:52.002Z,37.77
2017-05-18T04:40:02.208Z,38.06
2017-05-18T04:41:11.803Z,38.15
2017-05-18T04:42:21.760Z,38.25
2017-05-18T04:43:31.990Z,38.15
2017-05-18T04:44:41.906Z,38.15
2017-05-18T04:45:52.122Z,37.87
2017-05-18T04:47:02.039Z,38.06
2017-05-18T04:48:11.954Z,37.77
2017-05-18T04:49:21.935Z,37.87
2017-05-18T04:50:32.168Z,37.96
2017-05-18T04:51:42.137Z,37.67
2017-05-18T04:52:52.045Z,37.96
2017-05-18T04:54:02.264Z,37.88
2017-05-18T04:55:12.477Z,37.96
2017-05-18T04:56:22.701Z,37.88
2017-05-18T04:57:32.046Z,37.79
2017-05-18T04:58:41.981Z,37.79
2017-05-18T04:59:52.198Z,37.59
2017-05-18T05:01:02.418Z,37.49
2017-05-18T05:02:12.032Z,37.3
2017-05-18T05:03:22.238Z,37.01
2017-05-18T05:04:32.154Z,37.32
2017-05-18T05:05:42.068Z,37.13
2017-05-18T05:06:51.970Z,37.13
2017-05-18T05:08:02.260Z,37.03
2017-05-18T05:09:12.172Z,37.13
2017-05-18T05:10:22.090Z,36.74
2017-05-18T05:11:32.002Z,36.93
2017-05-18T05:12:42.235Z,36.74
2017-05-18T05:13:52.470Z,37.13
2017-05-18T05:15:02.397Z,37.03
2017-05-18T05:16:12.325Z,36.83
2017-05-18T05:17:22.227Z,37.03
2017-05-18T05:18:31.523Z,36.74
2017-05-18T05:19:41.436Z,36.83
2017-05-18T05:20:51.349Z,36.95
2017-05-18T05:22:01.253Z,36.83
2017-05-18T05:23:11.166Z,36.85
2017-05-18T05:24:21.400Z,36.66
2017-05-18T05:25:31.309Z,36.56
2017-05-18T05:26:41.213Z,36.76
2017-05-18T05:27:51.433Z,36.56
2017-05-18T05:29:01.660Z,36.56
2017-05-18T05:30:11.874Z,36.66
2017-05-18T05:31:21.781Z,36.36
2017-05-18T05:32:31.992Z,36.36
2017-05-18T05:33:42.219Z,36.66
2017-05-18T05:34:52.125Z,36.66
2017-05-18T05:36:02.347Z,36.56
2017-05-18T05:37:13.061Z,36.56
2017-05-18T05:38:22.666Z,36.56
2017-05-18T05:39:32.264Z,36.66
2017-05-18T05:40:42.185Z,36.46
2017-05-18T05:41:51.788Z,36.56
2017-05-18T05:43:01.740Z,36.66
2017-05-18T05:44:11.642Z,36.56
2017-05-18T05:45:21.557Z,36.66
2017-05-18T05:46:31.772Z,36.58
2017-05-18T05:47:41.985Z,36.58
2017-05-18T05:48:51.668Z,36.66
2017-05-18T05:50:01.282Z,36.48
2017-05-18T05:51:10.277Z,36.48
2017-05-18T05:52:20.248Z,36.68
2017-05-18T05:53:30.471Z,36.77
2017-05-18T05:54:40.071Z,36.66
2017-05-18T05:55:50.281Z,36.58
2017-05-18T05:57:00.196Z,36.58
2017-05-18T05:58:10.406Z,36.48
2017-05-18T05:59:20.620Z,36.56
2017-05-18T06:00:30.526Z,36.58
2017-05-18T06:01:39.848Z,36.38
2017-05-18T06:02:50.076Z,36.68
2017-05-18T06:03:59.692Z,36.58
2017-05-18T06:05:09.910Z,36.38
2017-05-18T06:06:19.507Z,36.29
2017-05-18T06:07:29.717Z,36.68
2017-05-18T06:08:39.934Z,36.58
2017-05-18T06:09:50.149Z,36.68
2017-05-18T06:11:00.064Z,36.68
2017-05-18T06:12:10.300Z,36.58
2017-05-18T06:13:20.208Z,36.38
2017-05-18T06:14:29.804Z,36.68
2017-05-18T06:15:38.877Z,36.48
2017-05-18T06:16:48.263Z,36.38
2017-05-18T06:17:57.860Z,36
2017-05-18T06:19:08.092Z,36.3
2017-05-18T06:20:18.324Z,36.21
2017-05-18T06:21:28.236Z,36.21
2017-05-18T06:22:38.455Z,35.92
2017-05-18T06:23:48.735Z,36.02
2017-05-18T06:24:58.953Z,35.82
2017-05-18T06:26:09.172Z,35.82
2017-05-18T06:27:18.788Z,35.82
2017-05-18T06:28:29.033Z,36.21
2017-05-18T06:29:39.009Z,36.11
2017-05-18T06:30:48.644Z,35.92
2017-05-18T06:31:58.570Z,36.11
2017-05-18T06:33:08.184Z,36.02
2017-05-18T06:34:17.787Z,36.3
2017-05-18T06:35:28.813Z,36.5
2017-05-18T06:36:38.726Z,36.3
2017-05-18T06:37:48.350Z,36.6
2017-05-18T06:38:58.574Z,36.6
2017-05-18T06:40:08.184Z,36.5
2017-05-18T06:41:17.843Z,36.5
2017-05-18T06:42:28.090Z,36.68
2017-05-18T06:43:38.316Z,36.68
2017-05-18T06:44:48.554Z,36.87
2017-05-18T06:45:58.151Z,36.87
2017-05-18T06:47:08.388Z,36.97
2017-05-18T06:48:18.005Z,36.79
2017-05-18T06:49:27.926Z,36.97
2017-05-18T06:50:37.535Z,36.87
2017-05-18T06:51:46.825Z,37.16
2017-05-18T06:52:56.751Z,36.77
2017-05-18T06:54:06.966Z,36.77
2017-05-18T06:55:16.882Z,36.97
2017-05-18T06:56:26.806Z,37.16
2017-05-18T06:57:36.405Z,37.07
2017-05-18T06:58:46.010Z,37.16
2017-05-18T06:59:56.233Z,37.16
2017-05-18T07:01:06.156Z,37.26
2017-05-18T07:02:15.765Z,37.26
2017-05-18T07:03:26.000Z,37.07
2017-05-18T07:04:35.298Z,37.07
2017-05-18T07:05:44.295Z,37.16
2017-05-18T07:06:54.519Z,37.07
2017-05-18T07:08:04.451Z,37.16
2017-05-18T07:09:14.378Z,37.16
2017-05-18T07:10:24.301Z,37.07
2017-05-18T07:11:33.894Z,37.07
2017-05-18T07:12:43.551Z,37.35
2017-05-18T07:13:53.156Z,37.26
2017-05-18T07:15:03.381Z,37.35
2017-05-18T07:16:13.290Z,37.26
2017-05-18T07:17:23.541Z,37.26
2017-05-18T07:18:33.754Z,36.97
2017-05-18T07:19:43.687Z,36.87
2017-05-18T07:20:53.323Z,36.6
2017-05-18T07:22:02.949Z,36.5
2017-05-18T07:23:13.179Z,36.02
2017-05-18T07:24:22.471Z,35.35
2017-05-18T07:25:32.083Z,34.88
2017-05-18T07:26:41.384Z,34.4
2017-05-18T07:27:51.299Z,34.61
2017-05-18T07:29:01.529Z,34.7
2017-05-18T07:30:11.829Z,34.7
2017-05-18T07:31:21.444Z,35.08
2017-05-18T07:32:31.061Z,35.37
2017-05-18T07:33:40.679Z,35.27
2017-05-18T07:34:50.591Z,35.37
2017-05-18T07:36:00.522Z,35.47
2017-05-18T07:37:10.433Z,35.57
2017-05-18T07:38:20.059Z,35.37
2017-05-18T07:39:29.977Z,35.57
2017-05-18T07:40:39.897Z,35.27
2017-05-18T07:41:49.817Z,34.32
2017-05-18T07:42:59.755Z,33.56
2017-05-18T07:44:09.682Z,33.58
2017-05-18T07:45:18.700Z,33.09
2017-05-18T07:46:28.316Z,32.62
2017-05-18T07:47:38.235Z,32.15
2017-05-18T07:48:48.470Z,31.96
2017-05-18T07:49:58.379Z,31.67
2017-05-18T07:51:08.321Z,31.4
2017-05-18T07:52:17.620Z,31.1
2017-05-18T07:53:27.854Z,30.91
2017-05-18T07:54:37.459Z,31.12
2017-05-18T07:55:47.691Z,31.12
2017-05-18T07:56:57.296Z,31.31
2017-05-18T07:58:07.234Z,31.12
2017-05-18T07:59:17.143Z,31.31
2017-05-18T08:00:27.053Z,31.51
2017-05-18T08:01:37.274Z,31.7
2017-05-18T08:02:47.192Z,31.7
2017-05-18T08:03:57.170Z,31.98
2017-05-18T08:05:07.385Z,31.88
2017-05-18T08:06:17.304Z,31.98
2017-05-18T08:07:27.219Z,31.79
2017-05-18T08:08:37.440Z,31.6
2017-05-18T08:09:47.724Z,31.6
2017-05-18T08:10:57.341Z,31.51
2017-05-18T08:12:07.263Z,31.6
2017-05-18T08:13:17.184Z,31.8
2017-05-18T08:14:26.818Z,31.9
2017-05-18T08:15:37.049Z,31.8
2017-05-18T08:16:46.957Z,32.09
2017-05-18T08:17:56.569Z,32.28
2017-05-18T08:19:06.490Z,32.47
2017-05-18T08:20:16.397Z,32.94
2017-05-18T08:21:26.314Z,33.43
2017-05-18T08:22:36.378Z,33.62
2017-05-18T08:24:12.270Z,33.82
2017-05-18T08:25:21.885Z,33.7
2017-05-18T08:26:32.118Z,34.29
2017-05-18T08:27:42.343Z,34.37
2017-05-18T08:28:52.270Z,34.56
2017-05-18T08:30:02.195Z,34.47
2017-05-18T08:31:11.816Z,34.47
2017-05-18T08:32:21.437Z,34.45
2017-05-18T08:33:31.061Z,34.94
2017-05-18T08:34:40.966Z,35.03
2017-05-18T08:35:50.882Z,35.61
2017-05-18T08:37:00.808Z,35.41
2017-05-18T08:38:10.726Z,35.31
2017-05-18T08:39:20.984Z,35.41
2017-05-18T08:40:29.998Z,35.41
2017-05-18T08:41:39.624Z,35.5
2017-05-18T08:42:49.544Z,35.21
2017-05-18T08:43:59.460Z,35.21
2017-05-18T08:45:09.069Z,35.5
2017-05-18T08:46:18.377Z,35.41
2017-05-18T08:47:28.294Z,35.5
2017-05-18T08:48:38.531Z,35.41
2017-05-18T08:49:48.129Z,35.41
2017-05-18T08:50:58.363Z,35.5
2017-05-18T08:52:07.975Z,35.6
2017-05-18T08:53:17.891Z,35.5
2017-05-18T08:54:27.818Z,35.21
2017-05-18T08:55:38.047Z,35.5
2017-05-18T08:56:47.953Z,35.41
2017-05-18T08:57:58.163Z,35.31
2017-05-18T08:59:07.813Z,35.5
2017-05-18T09:00:17.120Z,35.41
2017-05-18T09:01:27.332Z,35.8
2017-05-18T09:02:36.949Z,35.78
2017-05-18T09:03:46.873Z,35.78
2017-05-18T09:04:56.802Z,35.88
2017-05-18T09:06:07.032Z,36.07
2017-05-18T09:07:16.335Z,36.16
2017-05-18T09:08:26.250Z,36.26
2017-05-18T09:09:36.229Z,36.26
2017-05-18T09:10:45.854Z,36.26
2017-05-18T09:11:55.788Z,36.16
2017-05-18T09:13:05.093Z,36.36
2017-05-18T09:14:15.017Z,36.54
2017-05-18T09:15:24.355Z,36.44
2017-05-18T09:16:33.663Z,36.34
2017-05-18T09:17:43.589Z,36.55
2017-05-18T09:18:52.892Z,36.65
2017-05-18T09:20:02.829Z,36.63
2017-05-18T09:21:12.432Z,36.54
2017-05-18T09:22:22.049Z,36.54
2017-05-18T09:23:31.423Z,36.36
2017-05-18T09:24:41.339Z,36.44
2017-05-18T09:25:50.958Z,35.96
2017-05-18T09:27:00.575Z,36.26
2017-05-18T09:28:10.490Z,36.16
2017-05-18T09:29:20.712Z,36.26
2017-05-18T09:30:30.327Z,36.07
2017-05-18T09:31:40.316Z,36.07
2017-05-18T09:32:50.224Z,36.07
2017-05-18T09:33:59.531Z,36.16
2017-05-18T09:35:09.460Z,36.16
2017-05-18T09:36:19.070Z,36.16
2017-05-18T09:37:29.301Z,36.16
2017-05-18T09:38:38.928Z,36.26
2017-05-18T09:39:49.162Z,35.97
2017-05-18T09:40:58.795Z,36.15
2017-05-18T09:42:09.044Z,36.26
2017-05-18T09:43:18.983Z,36.36
2017-05-18T09:44:29.216Z,36.05
2017-05-18T09:45:39.138Z,36.16
2017-05-18T09:46:48.746Z,36.34
2017-05-18T09:47:58.041Z,36.34
2017-05-18T09:49:08.261Z,36.24
2017-05-18T09:50:18.181Z,36.36
2017-05-18T09:51:28.090Z,36.44
2017-05-18T09:52:38.007Z,36.44
2017-05-18T09:53:48.233Z,36.15
2017-05-18T09:54:58.156Z,36.05
2017-05-18T09:56:07.819Z,36.16
2017-05-18T09:57:17.747Z,36.36
2017-05-18T09:58:27.668Z,36.07
2017-05-18T09:59:37.885Z,36.07
2017-05-18T10:00:47.543Z,35.86
2017-05-18T10:01:57.458Z,35.88
2017-05-18T10:03:07.371Z,35.88
2017-05-18T10:04:17.046Z,35.88
2017-05-18T10:05:26.951Z,36.07
2017-05-18T10:06:36.583Z,36.07
2017-05-18T10:07:46.499Z,36.07
2017-05-18T10:08:56.426Z,35.97
2017-05-18T10:10:06.641Z,36.36
2017-05-18T10:11:16.551Z,36.16
2017-05-18T10:12:26.462Z,36.24
2017-05-18T10:13:35.773Z,36.44
2017-05-18T10:14:45.384Z,36.63
2017-05-18T10:15:55.296Z,36.63
2017-05-18T10:17:04.658Z,36.54
2017-05-18T10:18:14.895Z,36.63
2017-05-18T10:19:25.111Z,36.93
2017-05-18T10:20:35.327Z,36.93
2017-05-18T10:21:45.252Z,37.02
2017-05-18T10:22:55.481Z,37.1
2017-05-18T10:24:05.393Z,36.83
2017-05-18T10:25:14.691Z,36.81
2017-05-18T10:26:24.605Z,37.3
2017-05-18T10:27:34.542Z,37.2
2017-05-18T10:28:44.769Z,37.2
2017-05-18T10:29:54.983Z,37.2
2017-05-18T10:31:04.597Z,37.39
2017-05-18T10:32:14.517Z,37.39
2017-05-18T10:33:24.438Z,37.3
2017-05-18T10:34:34.365Z,37.1
2017-05-18T10:35:43.971Z,37.28
2017-05-18T10:36:54.188Z,37.28
2017-05-18T10:38:04.417Z,37.49
2017-05-18T10:39:14.648Z,37.49
2017-05-18T10:40:24.261Z,37.59
2017-05-18T10:41:34.176Z,37.49
2017-05-18T10:42:44.400Z,37.49
2017-05-18T10:43:54.629Z,37.39
2017-05-18T10:45:04.550Z,37.57
2017-05-18T10:46:14.771Z,37.59
2017-05-18T10:47:24.385Z,37.47
2017-05-18T10:48:33.999Z,37.57
2017-05-18T10:49:43.616Z,37.49
2017-05-18T10:50:53.244Z,37.28
2017-05-18T10:52:03.155Z,37.28
2017-05-18T10:53:12.468Z,37.3
2017-05-18T10:54:22.374Z,37.1
2017-05-18T10:55:31.982Z,37.01
2017-05-18T10:56:42.206Z,36.91
2017-05-18T10:57:51.819Z,37.01
2017-05-18T10:59:01.155Z,36.71
2017-05-18T11:00:11.075Z,36.63
2017-05-18T11:01:20.986Z,36.63
2017-05-18T11:02:30.900Z,36.63
2017-05-18T11:03:41.127Z,36.44
2017-05-18T11:04:51.046Z,36.63
2017-05-18T11:06:00.962Z,36.73
2017-05-18T11:07:10.877Z,36.54
2017-05-18T11:08:20.794Z,36.63
2017-05-18T11:09:30.713Z,36.54
2017-05-18T11:10:40.952Z,36.83
2017-05-18T11:11:50.883Z,36.63
2017-05-18T11:13:00.790Z,36.63
2017-05-18T11:14:10.698Z,36.73
2017-05-18T11:15:20.613Z,36.63
2017-05-18T11:16:30.600Z,36.63
2017-05-18T11:17:40.524Z,36.63
2017-05-18T11:18:50.752Z,36.63
2017-05-18T11:20:00.678Z,36.63
2017-05-18T11:21:10.915Z,36.44
2017-05-18T11:22:20.830Z,36.63
2017-05-18T11:23:30.748Z,36.63
2017-05-18T11:24:40.665Z,36.63
2017-05-18T11:25:50.574Z,36.63
2017-05-18T11:27:00.794Z,36.63
2017-05-18T11:28:10.105Z,36.83
2017-05-18T11:29:20.024Z,36.73
2017-05-18T11:30:29.956Z,36.63
2017-05-18T11:31:39.886Z,36.24
2017-05-18T11:32:50.118Z,36.34
2017-05-18T11:33:59.419Z,36.83
2017-05-18T11:35:09.349Z,36.63
2017-05-18T11:36:18.980Z,36.63
2017-05-18T11:37:28.905Z,36.93
2017-05-18T11:38:38.841Z,36.81
2017-05-18T11:39:49.078Z,37.01
2017-05-18T11:40:59.307Z,37.1
2017-05-18T11:42:09.535Z,36.91
2017-05-18T11:43:19.165Z,37.1
2017-05-18T11:44:28.479Z,37.3
2017-05-18T11:45:38.394Z,37.3
2017-05-18T11:46:47.991Z,37.2
2017-05-18T11:47:57.892Z,37.01
2017-05-18T11:49:07.805Z,37.2
2017-05-18T11:50:17.417Z,37.39
2017-05-18T11:51:27.319Z,37.39
2017-05-18T11:52:37.541Z,37.37
2017-05-18T11:53:47.768Z,37.39
2017-05-18T11:54:57.402Z,37.1
2017-05-18T11:56:07.017Z,37.2
2017-05-18T11:57:16.683Z,37.1
2017-05-18T11:58:26.351Z,37.2
2017-05-18T11:59:36.581Z,37.3
2017-05-18T12:00:46.188Z,37.47
2017-05-18T12:01:56.176Z,37.47
2017-05-18T12:03:06.106Z,37.59
2017-05-18T12:04:15.719Z,37.47
2017-05-18T12:05:25.662Z,37.47
2017-05-18T12:06:35.594Z,37.47
2017-05-18T12:07:45.512Z,37.37
2017-05-18T12:08:55.117Z,37.47
2017-05-18T12:10:05.348Z,37.47
2017-05-18T12:11:15.274Z,37.47
2017-05-18T12:12:25.495Z,37.47
2017-05-18T12:13:35.434Z,37.57
2017-05-18T12:14:45.360Z,37.57
2017-05-18T12:15:55.598Z,37.57
2017-05-18T12:17:05.831Z,37.47
2017-05-18T12:18:15.454Z,37.66
2017-05-18T12:19:25.678Z,37.66
2017-05-18T12:20:35.605Z,37.76
2017-05-18T12:21:45.530Z,37.57
2017-05-18T12:22:55.781Z,37.76
2017-05-18T12:24:06.058Z,37.76
2017-05-18T12:25:15.682Z,37.57
2017-05-18T12:26:25.283Z,37.47
2017-05-18T12:27:35.504Z,37.57
2017-05-18T12:28:45.412Z,37.47
2017-05-18T12:29:55.056Z,37.47
2017-05-18T12:31:05.299Z,37.47
2017-05-18T12:32:14.913Z,37.18
2017-05-18T12:33:24.840Z,37.3
2017-05-18T12:34:34.758Z,37.39
2017-05-18T12:35:44.675Z,37.2
2017-05-18T12:36:54.600Z,37.3
2017-05-18T12:38:03.604Z,36.99
2017-05-18T12:39:13.517Z,37.2
2017-05-18T12:40:22.810Z,37.2
2017-05-18T12:41:32.780Z,36.81
2017-05-18T12:42:43.003Z,36.91
2017-05-18T12:43:52.923Z,36.71
2017-05-18T12:45:03.144Z,36.91
2017-05-18T12:46:13.079Z,36.91
2017-05-18T12:47:22.694Z,36.91
2017-05-18T12:48:32.622Z,37.01
2017-05-18T12:49:42.532Z,37.01
2017-05-18T12:50:52.764Z,36.91
2017-05-18T12:52:02.745Z,37.01
2017-05-18T12:53:12.984Z,36.81
2017-05-18T12:54:22.586Z,37.1
2017-05-18T12:55:32.498Z,36.91
2017-05-18T12:56:42.108Z,37.01
2017-05-18T12:57:51.730Z,37.1
2017-05-18T12:59:01.646Z,37.01
2017-05-18T13:00:11.920Z,36.91
2017-05-18T13:01:21.834Z,36.91
2017-05-18T13:02:32.080Z,36.91
2017-05-18T13:03:41.707Z,36.91
2017-05-18T13:04:51.926Z,36.91
2017-05-18T13:06:02.156Z,36.91
2017-05-18T13:07:12.081Z,36.81
2017-05-18T13:08:22.309Z,36.91
2017-05-18T13:09:32.534Z,36.91
2017-05-18T13:10:42.453Z,37.1
2017-05-18T13:11:51.758Z,37.1
2017-05-18T13:13:01.368Z,36.91
2017-05-18T13:14:11.587Z,36.91
2017-05-18T13:15:20.909Z,37.1
2017-05-18T13:16:31.134Z,37.1
2017-05-18T13:17:41.355Z,36.91
2017-05-18T13:18:51.281Z,36.91
2017-05-18T13:20:01.518Z,36.81
2017-05-18T13:21:11.799Z,36.91
2017-05-18T13:22:21.106Z,36.81
2017-05-18T13:23:31.043Z,36.81
2017-05-18T13:24:41.280Z,36.81
2017-05-18T13:25:50.880Z,37.1
2017-05-18T13:27:00.799Z,37.01
2017-05-18T13:28:10.096Z,36.91
2017-05-18T13:29:19.724Z,37.1
2017-05-18T13:30:29.950Z,36.91
2017-05-18T13:31:39.857Z,36.91
2017-05-18T13:32:50.116Z,36.91
2017-05-18T13:33:59.114Z,37.01
2017-05-18T13:35:08.710Z,37.01
2017-05-18T13:36:17.703Z,37.01
2017-05-18T13:37:27.615Z,36.81
2017-05-18T13:38:37.525Z,37.01
2017-05-18T13:39:47.140Z,36.91
2017-05-18T13:40:57.078Z,36.81
2017-05-18T13:42:07.320Z,36.91
2017-05-18T13:43:16.319Z,37.01
2017-05-18T13:44:26.544Z,36.71
2017-05-18T13:45:36.768Z,36.61
2017-05-18T13:46:46.688Z,36.61
2017-05-18T13:47:55.685Z,36.63
2017-05-18T13:49:05.905Z,36.61
2017-05-18T13:50:15.531Z,36.52
2017-05-18T13:51:25.467Z,36.71
2017-05-18T13:52:35.692Z,36.61
2017-05-18T13:53:45.611Z,36.73
2017-05-18T13:54:55.874Z,36.61
2017-05-18T13:56:06.220Z,36.71
2017-05-18T13:57:16.188Z,36.71
2017-05-18T13:58:26.107Z,36.91
2017-05-18T13:59:36.026Z,37.01
2017-05-18T14:00:46.253Z,37.01
2017-05-18T14:01:56.476Z,36.91
2017-05-18T14:03:06.077Z,36.91
2017-05-18T14:04:16.367Z,37.1
2017-05-18T14:05:26.211Z,36.91
2017-05-18T14:06:36.131Z,37.01
2017-05-18T14:07:46.367Z,37.2
2017-05-18T14:08:56.001Z,37.2
2017-05-18T14:10:05.625Z,36.81
2017-05-18T14:11:15.846Z,37.1
2017-05-18T14:12:25.787Z,36.81
2017-05-18T14:13:35.760Z,37.2
2017-05-18T14:14:45.502Z,37.2
2017-05-18T14:15:55.428Z,37.2
2017-05-18T14:17:05.382Z,37.3
2017-05-18T14:18:15.608Z,37.2
2017-05-18T14:19:25.546Z,37.1
2017-05-18T14:20:35.777Z,37.1
2017-05-18T14:21:45.076Z,37.37
2017-05-18T14:22:54.687Z,37.3
2017-05-18T14:24:04.916Z,37.3
2017-05-18T14:25:14.853Z,37.2
2017-05-18T14:26:24.168Z,37.2
2017-05-18T14:27:34.396Z,37.3
2017-05-18T14:28:44.633Z,37.49
2017-05-18T14:29:54.251Z,37.39
2017-05-18T14:31:04.475Z,37.37
2017-05-18T14:32:14.694Z,37.47
2017-05-18T14:33:24.610Z,37.57
2017-05-18T14:34:34.867Z,37.47
2017-05-18T14:35:44.813Z,37.47
2017-05-18T14:36:54.731Z,37.57
2017-05-18T14:38:04.648Z,37.57
2017-05-18T14:39:14.564Z,37.57
2017-05-18T14:40:24.195Z,37.57
2017-05-18T14:41:34.114Z,37.47
2017-05-18T14:42:43.734Z,37.47
2017-05-18T14:43:53.658Z,37.66
2017-05-18T14:45:03.272Z,37.66
2017-05-18T14:46:12.571Z,37.57
2017-05-18T14:47:22.194Z,37.86
2017-05-18T14:48:32.147Z,37.47
2017-05-18T14:49:42.365Z,37.76
2017-05-18T14:50:52.287Z,37.57
2017-05-18T14:52:02.203Z,37.76
2017-05-18T14:53:12.109Z,37.66
2017-05-18T14:54:21.723Z,37.86
2017-05-18T14:55:31.952Z,37.86
2017-05-18T14:56:41.873Z,37.86
2017-05-18T14:57:51.487Z,37.86
2017-05-18T14:59:01.418Z,37.76
2017-05-18T15:00:11.019Z,37.76
2017-05-18T15:01:20.952Z,37.86
2017-05-18T15:02:31.177Z,37.76
2017-05-18T15:03:41.085Z,37.76
2017-05-18T15:04:50.999Z,37.76